createdAt,value
2023-03-29T00:00:08.956Z,43.17
2023-03-29T00:02:39.643Z,43.53
2023-03-29T00:05:08.955Z,43.74
2023-03-29T00:07:36.440Z,43.76
2023-03-29T00:10:04.801Z,43.54
2023-03-29T00:12:33.036Z,44.07
2023-03-29T00:15:00.477Z,44.57
2023-03-29T00:17:28.330Z,44.01
2023-03-29T00:19:56.222Z,44.43
2023-03-29T00:22:23.906Z,44.46
2023-03-29T00:24:54.315Z,44.60
2023-03-29T00:27:22.377Z,44.32
2023-03-29T00:29:49.907Z,44.37
2023-03-29T00:32:17.343Z,44.57
2023-03-29T00:34:46.116Z,44.75
2023-03-29T00:37:14.896Z,44.91
2023-03-29T00:39:42.554Z,44.59
2023-03-29T00:42:14.631Z,44.79
2023-03-29T00:45:06.997Z,44.74
2023-03-29T00:47:43.820Z,45.00
2023-03-29T00:50:26.299Z,45.24
2023-03-29T00:53:26.313Z,44.80
2023-03-29T00:55:59.040Z,45.36
2023-03-29T00:58:54.822Z,45.50
2023-03-29T01:01:42.101Z,45.70
2023-03-29T01:04:18.563Z,45.47
2023-03-29T01:07:03.440Z,45.76
2023-03-29T01:09:33.823Z,45.59
2023-03-29T01:12:03.709Z,45.73
2023-03-29T01:14:39.216Z,47.31
2023-03-29T01:17:07.053Z,46.77
2023-03-29T01:19:39.846Z,47.20
2023-03-29T01:22:18.629Z,47.50
2023-03-29T01:25:11.256Z,47.66
2023-03-29T01:27:52.371Z,47.05
2023-03-29T01:30:40.606Z,47.76
2023-03-29T01:33:24.706Z,47.51
2023-03-29T01:36:11.705Z,47.54
2023-03-29T01:38:56.211Z,47.74
2023-03-29T01:41:34.527Z,46.98
2023-03-29T01:44:13.861Z,47.00
2023-03-29T01:46:48.156Z,46.73
2023-03-29T01:49:24.283Z,46.69
2023-03-29T01:52:00.014Z,46.51
2023-03-29T01:54:35.121Z,46.16
2023-03-29T01:57:04.797Z,46.44
2023-03-29T01:59:34.841Z,46.06
2023-03-29T02:02:05.916Z,46.28
2023-03-29T02:04:54.297Z,46.01
2023-03-29T02:07:25.918Z,45.79
2023-03-29T02:09:54.447Z,46.03
2023-03-29T02:12:22.281Z,45.58
2023-03-29T02:14:49.684Z,45.54
2023-03-29T02:17:22.121Z,45.33
2023-03-29T02:19:55.065Z,45.63
2023-03-29T02:22:28.757Z,45.36
2023-03-29T02:24:59.178Z,45.45
2023-03-29T02:27:28.015Z,45.52
2023-03-29T02:29:56.076Z,45.64
2023-03-29T02:32:35.618Z,45.89
2023-03-29T02:35:14.527Z,46.76
2023-03-29T02:37:44.311Z,46.08
2023-03-29T02:40:13.227Z,46.04
2023-03-29T02:42:41.701Z,46.03
2023-03-29T02:45:12.571Z,46.27
2023-03-29T02:47:46.894Z,46.18
2023-03-29T02:50:14.366Z,46.35
2023-03-29T02:52:47.368Z,46.28
2023-03-29T02:55:17.340Z,46.51
2023-03-29T02:57:45.563Z,46.30
2023-03-29T03:00:14.641Z,46.03
2023-03-29T03:02:42.833Z,46.11
2023-03-29T03:05:10.948Z,45.59
2023-03-29T03:07:40.529Z,45.40
2023-03-29T03:10:10.152Z,45.53
2023-03-29T03:12:38.307Z,45.77
2023-03-29T03:15:06.748Z,45.89
2023-03-29T03:17:39.928Z,45.55
2023-03-29T03:20:13.774Z,45.80
2023-03-29T03:22:44.010Z,46.00
2023-03-29T03:25:11.749Z,46.03
2023-03-29T03:27:39.742Z,46.08
2023-03-29T03:30:07.845Z,46.23
2023-03-29T03:32:38.482Z,46.06
2023-03-29T03:35:07.525Z,47.08
2023-03-29T03:37:34.951Z,46.80
2023-03-29T03:40:03.704Z,46.90
2023-03-29T03:42:31.325Z,47.05
2023-03-29T03:44:58.930Z,47.03
2023-03-29T03:47:28.247Z,47.33
2023-03-29T03:49:56.374Z,47.28
2023-03-29T03:52:25.307Z,47.39
2023-03-29T03:54:53.307Z,47.54
2023-03-29T03:57:24.625Z,47.52
2023-03-29T03:59:52.855Z,47.39
2023-03-29T04:02:22.060Z,47.59
2023-03-29T04:04:49.950Z,47.64
2023-03-29T04:07:18.329Z,47.59
2023-03-29T04:09:46.695Z,47.72
2023-03-29T04:12:14.867Z,47.71
2023-03-29T04:14:42.761Z,48.18
2023-03-29T04:17:10.260Z,48.36
2023-03-29T04:19:39.206Z,48.20
2023-03-29T04:22:06.587Z,48.61
2023-03-29T04:24:34.416Z,48.55
2023-03-29T04:27:04.014Z,48.79
2023-03-29T04:29:31.668Z,48.75
2023-03-29T04:32:01.243Z,48.67
2023-03-29T04:34:29.450Z,48.53
2023-03-29T04:36:58.865Z,49.36
2023-03-29T04:39:32.992Z,49.06
2023-03-29T04:42:02.881Z,49.34
2023-03-29T04:44:33.514Z,49.54
2023-03-29T04:47:01.562Z,49.29
2023-03-29T04:49:30.431Z,48.90
2023-03-29T04:52:00.757Z,48.93
2023-03-29T04:54:28.597Z,49.29
2023-03-29T04:56:56.808Z,49.10
2023-03-29T04:59:25.095Z,49.12
2023-03-29T05:01:52.901Z,48.92
2023-03-29T05:04:20.721Z,48.59
2023-03-29T05:06:49.141Z,48.79
2023-03-29T05:09:17.455Z,48.71
2023-03-29T05:11:45.187Z,48.10
2023-03-29T05:14:13.056Z,48.26
2023-03-29T05:16:42.421Z,48.26
2023-03-29T05:19:11.427Z,47.84
2023-03-29T05:21:40.078Z,47.74
2023-03-29T05:24:08.350Z,47.72
2023-03-29T05:26:37.385Z,47.35
2023-03-29T05:29:04.907Z,47.24
2023-03-29T05:31:33.099Z,47.08
2023-03-29T05:34:00.829Z,46.85
2023-03-29T05:36:29.862Z,46.91
2023-03-29T05:38:57.702Z,46.71
2023-03-29T05:41:26.040Z,46.52
2023-03-29T05:43:54.756Z,46.49
2023-03-29T05:46:23.328Z,46.57
2023-03-29T05:48:51.571Z,46.38
2023-03-29T05:51:19.426Z,46.38
2023-03-29T05:53:47.221Z,46.15
2023-03-29T05:56:16.365Z,45.78
2023-03-29T05:58:43.928Z,45.75
2023-03-29T06:01:14.694Z,46.06
2023-03-29T06:03:43.481Z,46.13
2023-03-29T06:06:11.181Z,45.96
2023-03-29T06:08:38.734Z,46.27
2023-03-29T06:11:08.904Z,46.43
2023-03-29T06:13:42.105Z,46.25
2023-03-29T06:16:10.808Z,46.12
2023-03-29T06:18:40.327Z,45.63
2023-03-29T06:21:09.321Z,45.08
2023-03-29T06:23:37.639Z,44.79
2023-03-29T06:26:05.948Z,44.80
2023-03-29T06:28:33.575Z,43.92
2023-03-29T06:31:02.907Z,47.74
2023-03-29T06:33:32.498Z,45.14
2023-03-29T06:36:01.017Z,43.13
2023-03-29T06:38:28.872Z,48.50
2023-03-29T06:41:04.873Z,42.07
2023-03-29T06:43:34.767Z,41.37
2023-03-29T06:46:08.721Z,41.22
2023-03-29T06:48:38.477Z,40.05
2023-03-29T06:51:07.511Z,39.84
2023-03-29T06:53:36.674Z,39.49
2023-03-29T06:56:09.034Z,39.04
2023-03-29T06:58:37.646Z,38.81
2023-03-29T07:01:07.137Z,38.97
2023-03-29T07:03:36.759Z,39.10
2023-03-29T07:06:09.811Z,39.27
2023-03-29T07:08:43.670Z,38.88
2023-03-29T07:11:13.148Z,39.46
2023-03-29T07:13:42.636Z,38.13
2023-03-29T07:16:14.786Z,37.81
2023-03-29T07:18:44.662Z,37.46
2023-03-29T07:21:14.732Z,37.48
2023-03-29T07:23:42.537Z,36.11
2023-03-29T07:26:12.102Z,36.61
2023-03-29T07:28:40.131Z,36.30
2023-03-29T07:31:10.935Z,36.36
2023-03-29T07:33:40.631Z,36.47
2023-03-29T07:36:09.925Z,35.62
2023-03-29T07:38:38.007Z,35.25
2023-03-29T07:41:08.111Z,35.33
2023-03-29T07:43:36.497Z,34.34
2023-03-29T07:46:05.366Z,32.32
2023-03-29T07:48:33.770Z,31.83
2023-03-29T07:51:03.877Z,30.64
2023-03-29T07:53:32.198Z,30.37
2023-03-29T07:56:01.665Z,31.00
2023-03-29T07:58:30.720Z,29.86
2023-03-29T08:01:00.243Z,30.17
2023-03-29T08:03:29.249Z,29.71
2023-03-29T08:05:56.861Z,30.07
2023-03-29T08:08:24.716Z,30.27
2023-03-29T08:10:53.156Z,29.47
2023-03-29T08:13:21.560Z,30.09
2023-03-29T08:15:50.353Z,29.53
2023-03-29T08:18:18.761Z,30.29
2023-03-29T08:20:46.322Z,29.97
2023-03-29T08:23:13.752Z,29.74
2023-03-29T08:25:45.748Z,29.69
2023-03-29T08:28:13.685Z,29.27
2023-03-29T08:30:42.177Z,29.77
2023-03-29T08:33:10.012Z,29.93
2023-03-29T08:35:37.675Z,29.27
2023-03-29T08:38:06.300Z,29.83
2023-03-29T08:40:34.506Z,29.56
2023-03-29T08:43:17.700Z,29.97
2023-03-29T08:46:27.462Z,29.54
2023-03-29T08:49:02.016Z,29.39
2023-03-29T08:51:37.299Z,30.05
2023-03-29T08:54:21.843Z,30.02
2023-03-29T08:56:51.954Z,29.96
2023-03-29T08:59:26.651Z,30.43
2023-03-29T09:01:56.698Z,29.50
2023-03-29T09:04:30.453Z,29.76
2023-03-29T09:06:59.442Z,29.87
2023-03-29T09:09:34.804Z,29.65
2023-03-29T09:12:35.787Z,29.31
2023-03-29T09:15:24.943Z,28.58
2023-03-29T09:18:11.336Z,27.87
2023-03-29T09:20:47.950Z,29.43
2023-03-29T09:23:29.392Z,29.47
2023-03-29T09:26:15.375Z,28.23
2023-03-29T09:29:27.885Z,27.88
2023-03-29T09:31:56.609Z,27.71
2023-03-29T09:34:31.764Z,28.04
2023-03-29T09:37:02.402Z,28.52
2023-03-29T09:39:30.470Z,27.11
2023-03-29T09:42:01.578Z,27.86
2023-03-29T09:44:37.550Z,27.91
2023-03-29T09:47:18.607Z,27.07
2023-03-29T09:49:49.788Z,27.32
2023-03-29T09:52:19.985Z,26.53
2023-03-29T09:54:48.299Z,27.00
2023-03-29T09:57:27.618Z,26.70
2023-03-29T09:59:55.226Z,27.30
2023-03-29T10:02:23.132Z,28.29
2023-03-29T10:04:55.682Z,27.75
2023-03-29T10:07:23.513Z,29.01
2023-03-29T10:09:55.152Z,28.62
2023-03-29T10:12:23.123Z,28.74
2023-03-29T10:14:54.139Z,27.89
2023-03-29T10:17:28.197Z,27.51
2023-03-29T10:19:58.399Z,28.47
2023-03-29T10:22:28.539Z,27.74
2023-03-29T10:25:17.964Z,28.70
2023-03-29T10:27:47.881Z,27.68
2023-03-29T10:30:22.174Z,27.63
2023-03-29T10:32:58.042Z,27.67
2023-03-29T10:35:40.047Z,27.22
2023-03-29T10:38:16.152Z,26.76
2023-03-29T10:40:51.827Z,27.21
2023-03-29T10:43:19.495Z,27.99
2023-03-29T10:45:51.747Z,27.57
2023-03-29T10:48:29.746Z,26.84
2023-03-29T10:51:04.480Z,27.84
2023-03-29T10:53:34.690Z,27.20
2023-03-29T10:56:24.765Z,26.89
2023-03-29T10:59:14.561Z,26.84
2023-03-29T11:01:47.757Z,26.48
2023-03-29T11:04:34.664Z,26.86
2023-03-29T11:07:23.992Z,26.97
2023-03-29T11:10:20.177Z,27.42
2023-03-29T11:12:59.306Z,25.43
2023-03-29T11:15:57.672Z,27.35
2023-03-29T11:18:47.372Z,27.16
2023-03-29T11:21:27.246Z,26.74
2023-03-29T11:24:38.346Z,26.68
2023-03-29T11:27:57.602Z,26.51
2023-03-29T11:30:31.161Z,25.70
2023-03-29T11:33:12.963Z,25.92
2023-03-29T11:36:02.456Z,25.49
2023-03-29T11:38:40.122Z,25.78
2023-03-29T11:41:16.179Z,25.81
2023-03-29T11:43:51.286Z,26.20
2023-03-29T11:46:28.845Z,26.20
2023-03-29T11:49:02.614Z,25.67
2023-03-29T11:51:46.248Z,27.08
2023-03-29T11:54:28.808Z,27.35
2023-03-29T11:57:02.017Z,27.19
2023-03-29T11:59:38.955Z,26.75
2023-03-29T12:02:30.146Z,27.50
2023-03-29T12:05:01.231Z,28.14
2023-03-29T12:07:42.301Z,27.34
2023-03-29T12:10:21.163Z,27.71
2023-03-29T12:12:56.523Z,27.68
2023-03-29T12:15:26.175Z,27.40
2023-03-29T12:18:10.461Z,27.23
2023-03-29T12:20:39.779Z,28.42
2023-03-29T12:23:08.700Z,29.10
2023-03-29T12:25:48.318Z,28.85
2023-03-29T12:28:26.850Z,28.47
2023-03-29T12:31:14.352Z,27.91
2023-03-29T12:34:23.514Z,28.24
2023-03-29T12:37:35.926Z,27.97
2023-03-29T12:40:14.374Z,28.20
2023-03-29T12:42:57.683Z,29.53
2023-03-29T12:45:48.710Z,28.56
2023-03-29T12:48:19.283Z,28.15
2023-03-29T12:51:03.013Z,29.34
2023-03-29T12:53:35.165Z,29.51
2023-03-29T12:56:03.198Z,28.93
2023-03-29T12:58:39.863Z,27.78
2023-03-29T13:01:32.186Z,29.08
2023-03-29T13:03:59.596Z,29.76
2023-03-29T13:06:49.435Z,29.48
2023-03-29T13:09:25.034Z,28.28
2023-03-29T13:11:53.963Z,28.29
2023-03-29T13:14:25.099Z,28.37
2023-03-29T13:16:53.696Z,28.79
2023-03-29T13:19:50.057Z,28.97
2023-03-29T13:22:32.986Z,29.59
2023-03-29T13:25:42.210Z,29.26
2023-03-29T13:28:33.214Z,28.56
2023-03-29T13:31:25.878Z,29.74
2023-03-29T13:34:01.275Z,30.36
2023-03-29T13:36:53.634Z,31.17
2023-03-29T13:39:22.603Z,33.96
2023-03-29T13:41:52.835Z,33.67
2023-03-29T13:44:47.731Z,30.47
2023-03-29T13:47:38.466Z,30.04
2023-03-29T13:50:29.741Z,29.89
2023-03-29T13:53:06.039Z,30.49
2023-03-29T13:55:40.836Z,34.17
2023-03-29T13:58:41.935Z,29.44
2023-03-29T14:01:28.422Z,29.82
2023-03-29T14:03:56.982Z,30.15
2023-03-29T14:06:27.484Z,29.44
2023-03-29T14:08:55.459Z,29.90
2023-03-29T14:11:28.914Z,29.77
2023-03-29T14:14:01.672Z,29.06
2023-03-29T14:16:31.680Z,29.16
2023-03-29T14:19:00.195Z,29.91
2023-03-29T14:21:27.670Z,29.83
2023-03-29T14:23:59.975Z,30.00
2023-03-29T14:26:33.467Z,29.33
2023-03-29T14:29:02.464Z,28.54
2023-03-29T14:31:32.538Z,29.75
2023-03-29T14:34:01.463Z,30.21
2023-03-29T14:36:31.116Z,29.51
2023-03-29T14:39:03.571Z,29.34
2023-03-29T14:41:36.754Z,28.70
2023-03-29T14:44:07.708Z,29.46
2023-03-29T14:46:36.470Z,29.66
2023-03-29T14:49:05.082Z,29.23
2023-03-29T14:51:32.539Z,28.43
2023-03-29T14:54:02.775Z,28.77
2023-03-29T14:56:32.578Z,29.00
2023-03-29T14:59:04.525Z,29.38
2023-03-29T15:01:32.307Z,28.49
2023-03-29T15:04:09.045Z,28.28
2023-03-29T15:06:41.819Z,28.22
2023-03-29T15:09:24.361Z,27.89
2023-03-29T15:11:56.732Z,28.32
2023-03-29T15:14:26.965Z,30.12
2023-03-29T15:17:04.395Z,28.97
2023-03-29T15:19:32.466Z,29.25
2023-03-29T15:22:05.988Z,29.48
2023-03-29T15:24:33.980Z,29.06
2023-03-29T15:27:20.992Z,28.56
2023-03-29T15:29:48.893Z,28.03
2023-03-29T15:32:24.627Z,28.32
2023-03-29T15:35:07.968Z,28.51
2023-03-29T15:37:35.927Z,28.38
2023-03-29T15:40:09.619Z,28.49
2023-03-29T15:42:37.096Z,29.09
2023-03-29T15:45:06.409Z,28.91
2023-03-29T15:47:33.987Z,29.45
2023-03-29T15:50:02.019Z,29.38
2023-03-29T15:52:29.712Z,28.91
2023-03-29T15:54:57.284Z,29.06
2023-03-29T15:57:24.814Z,28.89
2023-03-29T15:59:52.574Z,28.36
2023-03-29T16:02:23.398Z,28.90
2023-03-29T16:04:51.354Z,29.52
2023-03-29T16:07:19.050Z,28.84
2023-03-29T16:09:46.969Z,29.33
2023-03-29T16:12:16.267Z,29.73
2023-03-29T16:14:43.680Z,29.85
2023-03-29T16:17:11.547Z,30.52
2023-03-29T16:19:39.204Z,29.95
2023-03-29T16:22:07.539Z,29.98
2023-03-29T16:24:35.803Z,30.32
2023-03-29T16:27:04.114Z,30.29
2023-03-29T16:29:31.754Z,30.66
2023-03-29T16:31:59.245Z,31.27
2023-03-29T16:34:27.083Z,31.15
2023-03-29T16:36:54.582Z,31.61
2023-03-29T16:39:21.976Z,31.75
2023-03-29T16:41:50.334Z,32.05
2023-03-29T16:44:27.623Z,32.23
2023-03-29T16:46:57.793Z,32.56
2023-03-29T16:49:25.310Z,33.08
2023-03-29T16:51:52.785Z,33.18
2023-03-29T16:54:20.562Z,33.64
2023-03-29T16:56:48.325Z,34.69
2023-03-29T16:59:16.572Z,35.28
2023-03-29T17:01:44.578Z,35.29
2023-03-29T17:04:12.114Z,35.61
2023-03-29T17:06:39.583Z,35.78
2023-03-29T17:09:07.436Z,36.89
2023-03-29T17:11:35.859Z,36.45
2023-03-29T17:14:03.382Z,36.92
2023-03-29T17:16:31.329Z,36.81
2023-03-29T17:19:02.347Z,37.05
2023-03-29T17:21:29.849Z,37.28
2023-03-29T17:23:57.681Z,37.42
2023-03-29T17:26:26.058Z,37.87
2023-03-29T17:28:53.438Z,37.65
2023-03-29T17:31:21.370Z,37.69
2023-03-29T17:33:51.930Z,38.16
2023-03-29T17:36:23.875Z,38.17
2023-03-29T17:38:51.785Z,38.03
2023-03-29T17:41:19.337Z,38.33
2023-03-29T17:43:47.818Z,38.34
2023-03-29T17:46:16.749Z,38.27
2023-03-29T17:48:44.292Z,38.31
2023-03-29T17:51:11.685Z,38.41
2023-03-29T17:53:39.358Z,38.47
2023-03-29T17:56:07.332Z,38.52
2023-03-29T17:58:34.785Z,38.68
2023-03-29T18:01:10.030Z,38.77
2023-03-29T18:03:38.102Z,38.85
2023-03-29T18:06:06.622Z,38.85
2023-03-29T18:08:34.870Z,39.04
2023-03-29T18:11:11.773Z,39.22
2023-03-29T18:13:39.949Z,39.40
2023-03-29T18:16:09.036Z,39.51
2023-03-29T18:18:37.261Z,39.66
2023-03-29T18:21:06.860Z,39.81
2023-03-29T18:23:34.574Z,40.13
2023-03-29T18:26:03.782Z,40.08
2023-03-29T18:28:31.463Z,39.78
2023-03-29T18:30:59.369Z,40.12
2023-03-29T18:33:27.208Z,40.00
2023-03-29T18:35:54.654Z,40.41
2023-03-29T18:38:22.678Z,40.66
2023-03-29T18:40:50.523Z,40.81
2023-03-29T18:43:18.577Z,40.91
2023-03-29T18:45:47.572Z,40.91
2023-03-29T18:48:15.584Z,40.61
2023-03-29T18:50:46.992Z,40.57
2023-03-29T18:53:15.149Z,40.88
2023-03-29T18:55:43.095Z,41.05
2023-03-29T18:58:11.080Z,41.55
2023-03-29T19:00:40.574Z,41.45
2023-03-29T19:03:08.625Z,41.41
2023-03-29T19:05:39.767Z,41.56
2023-03-29T19:08:08.877Z,41.20
2023-03-29T19:10:37.321Z,41.32
2023-03-29T19:13:05.001Z,41.55
2023-03-29T19:15:34.656Z,41.81
2023-03-29T19:18:02.702Z,41.87
2023-03-29T19:20:30.462Z,41.93
2023-03-29T19:22:58.211Z,44.36
2023-03-29T19:25:25.834Z,42.84
2023-03-29T19:27:53.309Z,42.12
2023-03-29T19:30:23.307Z,42.09
2023-03-29T19:32:51.551Z,42.07
2023-03-29T19:35:19.070Z,42.18
2023-03-29T19:37:46.779Z,42.43
2023-03-29T19:40:14.356Z,42.20
2023-03-29T19:42:41.952Z,42.52
2023-03-29T19:45:10.740Z,42.40
2023-03-29T19:47:38.180Z,42.34
2023-03-29T19:50:07.014Z,42.53
2023-03-29T19:52:35.190Z,42.63
2023-03-29T19:55:02.628Z,42.63
2023-03-29T19:57:30.799Z,42.52
2023-03-29T19:59:58.617Z,42.42
2023-03-29T20:02:26.238Z,42.67
2023-03-29T20:04:55.048Z,42.75
2023-03-29T20:07:22.551Z,42.82
2023-03-29T20:09:49.940Z,43.45
2023-03-29T20:12:17.625Z,43.14
2023-03-29T20:14:45.020Z,43.01
2023-03-29T20:17:13.110Z,43.14
2023-03-29T20:19:44.009Z,43.21
2023-03-29T20:22:12.080Z,43.39
2023-03-29T20:24:39.531Z,43.25
2023-03-29T20:27:07.252Z,43.33
2023-03-29T20:29:34.659Z,43.70
2023-03-29T20:32:02.275Z,43.54
2023-03-29T20:34:29.982Z,43.82
2023-03-29T20:37:00.883Z,43.79
2023-03-29T20:39:29.574Z,44.02
2023-03-29T20:41:58.013Z,44.21
2023-03-29T20:44:28.615Z,44.32
2023-03-29T20:47:03.304Z,44.46
2023-03-29T20:49:37.260Z,44.57
2023-03-29T20:52:15.479Z,44.57
2023-03-29T20:54:44.564Z,44.20
2023-03-29T20:57:16.481Z,44.36
2023-03-29T20:59:44.493Z,44.67
2023-03-29T21:02:14.612Z,44.85
2023-03-29T21:04:42.137Z,44.76
2023-03-29T21:07:09.878Z,45.08
2023-03-29T21:09:37.409Z,45.13
2023-03-29T21:12:04.820Z,45.12
2023-03-29T21:14:33.058Z,45.20
2023-03-29T21:17:00.640Z,45.38
2023-03-29T21:19:28.160Z,44.96
2023-03-29T21:21:55.810Z,44.85
2023-03-29T21:24:23.236Z,45.03
2023-03-29T21:26:51.034Z,45.06
2023-03-29T21:29:18.798Z,44.83
2023-03-29T21:31:46.331Z,44.50
2023-03-29T21:34:15.091Z,44.40
2023-03-29T21:36:42.859Z,44.52
2023-03-29T21:39:10.363Z,44.85
2023-03-29T21:41:37.794Z,44.81
2023-03-29T21:44:05.607Z,44.96
2023-03-29T21:46:33.098Z,45.31
2023-03-29T21:49:00.632Z,45.49
2023-03-29T21:51:28.368Z,45.72
2023-03-29T21:53:55.986Z,45.90
2023-03-29T21:56:23.497Z,46.13
2023-03-29T21:58:51.258Z,46.47
2023-03-29T22:01:18.796Z,46.49
2023-03-29T22:03:47.523Z,46.69
2023-03-29T22:06:15.277Z,46.91
2023-03-29T22:08:42.801Z,46.87
2023-03-29T22:11:13.970Z,46.87
2023-03-29T22:13:42.298Z,47.04
2023-03-29T22:16:16.789Z,47.74
2023-03-29T22:18:49.268Z,47.65
2023-03-29T22:21:19.911Z,47.71
2023-03-29T22:23:48.475Z,48.10
2023-03-29T22:26:17.158Z,48.36
2023-03-29T22:28:45.415Z,49.07
2023-03-29T22:31:15.022Z,48.70
2023-03-29T22:33:43.142Z,48.41
2023-03-29T22:36:24.987Z,48.29
2023-03-29T22:38:52.603Z,48.40
2023-03-29T22:41:23.578Z,48.53
2023-03-29T22:43:52.573Z,48.37
2023-03-29T22:46:20.972Z,48.50
2023-03-29T22:48:48.651Z,48.51
2023-03-29T22:51:16.765Z,48.49
2023-03-29T22:53:44.834Z,48.71
2023-03-29T22:56:13.103Z,48.91
2023-03-29T22:58:40.501Z,48.96
2023-03-29T23:01:08.609Z,49.14
2023-03-29T23:03:36.834Z,49.25
2023-03-29T23:06:04.933Z,49.08
2023-03-29T23:08:33.793Z,49.24
2023-03-29T23:11:02.126Z,49.36
2023-03-29T23:13:30.596Z,49.51
2023-03-29T23:16:00.107Z,49.53
2023-03-29T23:18:29.494Z,49.71
2023-03-29T23:20:57.986Z,49.69
2023-03-29T23:23:26.933Z,50.15
2023-03-29T23:25:55.622Z,50.12
2023-03-29T23:28:30.196Z,50.42
2023-03-29T23:31:01.077Z,50.26
2023-03-29T23:33:33.507Z,50.65
2023-03-29T23:36:03.820Z,50.88
2023-03-29T23:38:33.206Z,50.80
2023-03-29T23:41:03.384Z,50.82
2023-03-29T23:43:33.237Z,50.59
2023-03-29T23:46:07.008Z,50.65
2023-03-29T23:48:34.712Z,51.36
2023-03-29T23:51:03.202Z,51.34
2023-03-29T23:53:31.523Z,51.40
2023-03-29T23:56:01.430Z,51.10
2023-03-29T23:58:33.645Z,51.16
